Aérodrome :
LOGIN :

S'inscrire | Disclaimer

   EN    FR    IT 

 










Légende :    VFR   VFR Marginal   IFR   IFR Intensif   IFR Très Intensif
Visi : 
Plafond : 
>= 8 km
>= 3000ft
5 à 8 km
1000 à 3000 ft
1500m à 5 km
500 à 1000 ft
800 à 1500m
200 à 500 ft
< 800m
< 200 ft
Symboles :   Orages  Brouillard  Fortes neiges  Fortes précipitations  Vent > 20 kt
SIGMETs :   Divers  Orages  Givrage  Turbulence  Onde Orograph.  Cendres Volcan.







- Altitude de l'aérodrome : 74 ft
- Code IATA : LRH
- Voir les cartes d'approche


LFBH - La Rochelle Ile de Ré

DERNIER METAR :
  • 280800Z AUTO 34003KT 270V020 CAVOK 10/03 Q1020 NOSIG

METARs EXPIRÉS :
  • 280730Z AUTO VRB03KT CAVOK 09/03 Q1020 NOSIG
  • 280700Z AUTO 00000KT CAVOK 09/03 Q1020 NOSIG
  • 280630Z AUTO 17003KT CAVOK 07/04 Q1020 NOSIG
  • 280600Z AUTO 08002KT CAVOK 05/03 Q1020 NOSIG
  • 280530Z AUTO 00000KT CAVOK 04/02 Q1020 NOSIG

TAF TAF LFBH
Valide du 28 à 06h jusqu'au 29 à 06h UTC


280500Z 2806/2906 08005KT CAVOK
TEMPO 2812/2820 30010KT
ATIS : +33 5 46 00 13 92
Pas de NOTAMs connus pour ce terrain.



MET'MAP, la Météo Aéronautique d'un coup d'oeil ! - Copyright ORBIFLY Décembre 2007 - Disclaimer

ORBIFLY MET'MAP TEAM :

Programmation & Développement : Alexandra Zaïnal
Conception & Développement : Baudouin d'Aumeries
Co-Programmation & Développement : Marc-Olivier Méhu
Soutien technique & logistique : Manuel Goepfert

Contact : metmap@orbifly.com




SOURCES & CREDITS :

   NOAA